Time;durP1;ratioP1;P1;durP2;ratioP2;P2;SDS_P1;SDS_P2;PMS_P1;PMS_P2;Temp;Humidity;BMP_temperature;BMP_pressure;BME280_temperature;BME280_humidity;BME280_pressure;Samples;Min_cycle;Max_cycle;Signal;HPM_P1;HPM_P2
2022/09/02 00:02:09;;;;;;;2.50;1.00;;;;;;;19.81;42.96;100280.41;10338255;28;20061;-73
2022/09/02 00:07:10;;;;;;;1.40;0.90;;;;;;;19.82;42.93;100282.94;10338978;28;20567;-73
2022/09/02 00:12:12;;;;;;;2.42;0.85;;;;;;;19.84;42.80;100285.47;10338436;28;20060;-74
2022/09/02 00:17:13;;;;;;;1.63;1.33;;;;;;;19.83;43.11;100272.97;10335769;28;20062;-73
2022/09/02 00:22:15;;;;;;;3.65;1.13;;;;;;;19.81;42.81;100275.84;10336552;28;20052;-75
2022/09/02 00:27:16;;;;;;;4.18;1.17;;;;;;;19.78;42.95;100265.41;10335937;28;20779;-74
2022/09/02 00:32:18;;;;;;;2.17;0.98;;;;;;;19.83;42.62;100267.56;10333915;28;20048;-75
2022/09/02 00:37:19;;;;;;;1.42;0.95;;;;;;;19.78;42.92;100265.41;10337776;28;20049;-73
2022/09/02 00:42:21;;;;;;;1.88;0.80;;;;;;;19.76;43.00;100268.25;10336383;28;20085;-71
2022/09/02 00:47:23;;;;;;;1.13;0.75;;;;;;;19.76;43.41;100262.88;10336364;28;20046;-73
2022/09/02 00:52:30;;;;;;;2.20;0.93;;;;;;;19.74;43.08;100259.53;10337023;28;20132;-74
2022/09/02 00:57:37;;;;;;;4.35;0.98;;;;;;;19.70;43.07;100260.91;10337709;28;20052;-71
2022/09/02 01:02:40;;;;;;;2.40;1.08;;;;;;;19.60;43.25;100253.03;10338930;28;20141;-72
2022/09/02 01:07:43;;;;;;;;;;;;;;;19.53;43.53;100251.25;10335576;28;20577;-73
2022/09/02 01:12:46;;;;;;;1.40;0.77;;;;;;;19.51;43.55;100253.31;10337920;28;19928;-74
2022/09/02 01:17:50;;;;;;;1.45;0.65;;;;;;;19.46;43.79;100251.16;10335542;28;20136;-72
2022/09/02 01:22:52;;;;;;;1.65;0.82;;;;;;;19.43;43.99;100255.06;10336204;28;20528;-73
2022/09/02 01:28:04;;;;;;;1.98;0.95;;;;;;;19.40;43.72;100251.91;10339207;28;20528;-76
2022/09/02 01:33:05;;;;;;;2.28;0.75;;;;;;;19.38;43.93;100254.78;10344137;28;20141;-75
2022/09/02 01:38:07;;;;;;;2.33;1.10;;;;;;;19.48;43.75;100248.28;10332010;28;20348;-72
2022/09/02 01:43:12;;;;;;;1.50;1.08;;;;;;;19.56;43.50;100250.91;10332852;28;20997;-74
2022/09/02 01:48:15;;;;;;;2.42;1.05;;;;;;;19.57;43.80;100252.59;10338225;28;20103;-72
2022/09/02 01:53:22;;;;;;;1.05;0.70;;;;;;;19.58;43.95;100251.56;10337600;28;20057;-68
2022/09/02 01:58:23;;;;;;;2.75;0.95;;;;;;;19.63;44.34;100246.44;10330760;28;20065;-75
2022/09/02 02:03:25;;;;;;;2.67;0.60;;;;;;;19.54;43.65;100248.38;10330924;28;20056;-73
2022/09/02 02:08:26;;;;;;;4.18;1.33;;;;;;;19.46;44.29;100242.25;10335149;28;20144;-73
2022/09/02 02:13:28;;;;;;;2.97;1.00;;;;;;;19.39;44.14;100237.53;10334958;28;20109;-72
2022/09/02 02:18:29;;;;;;;2.10;0.80;;;;;;;19.39;43.98;100244.81;10340844;28;20140;-69
2022/09/02 02:23:31;;;;;;;2.67;0.82;;;;;;;19.31;44.04;100244.88;10337779;28;20063;-72
2022/09/02 02:28:35;;;;;;;4.00;0.93;;;;;;;19.23;44.29;100240.38;10331290;28;20092;-72
2022/09/02 02:33:37;;;;;;;1.70;0.98;;;;;;;19.06;44.39;100237.78;10330498;28;20045;-73
2022/09/02 02:38:40;;;;;;;2.25;0.77;;;;;;;19.07;44.37;100247.56;10330529;28;20052;-74
2022/09/02 02:43:41;;;;;;;0.70;0.63;;;;;;;19.05;44.72;100251.47;10330034;28;20090;-72
2022/09/02 02:48:43;;;;;;;2.58;0.85;;;;;;;19.04;44.43;100253.31;10329065;28;20046;-72
2022/09/02 02:53:44;;;;;;;1.80;1.15;;;;;;;19.05;44.45;100252.31;10331306;28;20042;-74
2022/09/02 02:58:46;;;;;;;1.65;0.95;;;;;;;19.04;44.27;100247.94;10328047;28;20050;-73
2022/09/02 03:03:47;;;;;;;1.35;0.70;;;;;;;19.04;44.36;100247.94;10328841;28;20054;-74
2022/09/02 03:08:48;;;;;;;2.58;1.45;;;;;;;19.04;44.25;100247.09;10325843;28;20181;-76
2022/09/02 03:13:51;;;;;;;3.97;0.93;;;;;;;19.00;44.58;100246.59;10337861;28;20042;-72
2022/09/02 03:18:52;;;;;;;1.33;0.73;;;;;;;18.98;44.49;100242.44;10335558;28;20042;-73
2022/09/02 03:23:54;;;;;;;1.65;0.80;;;;;;;18.95;44.50;100232.81;10337639;28;20046;-74
2022/09/02 03:28:58;;;;;;;2.20;0.68;;;;;;;18.91;44.71;100236.88;10335906;28;20042;-72
2022/09/02 03:34:00;;;;;;;1.77;0.70;;;;;;;18.83;45.11;100228.84;10336693;28;20709;-71
2022/09/02 03:39:04;;;;;;;3.77;0.67;;;;;;;18.76;44.76;100235.94;10338255;28;20066;-75
2022/09/02 03:44:10;;;;;;;1.25;0.77;;;;;;;18.64;45.07;100228.25;10336235;28;20057;-73
2022/09/02 03:49:12;;;;;;;0.68;0.68;;;;;;;18.60;45.35;100232.34;10338371;28;20165;-69
2022/09/02 03:54:13;;;;;;;2.35;1.30;;;;;;;18.54;45.38;100227.66;10336177;28;20050;-74
2022/09/02 03:59:15;;;;;;;2.63;1.23;;;;;;;18.45;45.62;100220.59;10334804;28;20058;-72
2022/09/02 04:04:18;;;;;;;1.50;1.10;;;;;;;18.45;45.96;100220.59;10328011;28;20049;-75
2022/09/02 04:09:23;;;;;;;1.88;1.00;;;;;;;18.52;45.66;100227.78;10326207;28;20052;-74
2022/09/02 04:14:26;;;;;;;2.88;0.90;;;;;;;18.63;45.90;100221.19;10335150;28;20563;-73
2022/09/02 04:19:27;;;;;;;1.60;0.95;;;;;;;18.56;45.64;100217.53;10333089;28;20541;-73
2022/09/02 04:24:30;;;;;;;1.63;0.90;;;;;;;18.53;45.40;100228.66;10334125;28;20053;-75
2022/09/02 04:29:31;;;;;;;1.60;0.88;;;;;;;18.55;45.63;100222.09;10333039;28;20661;-75
2022/09/02 04:34:33;;;;;;;1.50;0.90;;;;;;;18.52;45.35;100229.66;10333733;28;20457;-71
2022/09/02 04:39:34;;;;;;;2.03;1.13;;;;;;;18.56;45.24;100233.69;10333520;28;20802;-73
2022/09/02 04:44:35;;;;;;;1.55;0.82;;;;;;;18.51;45.47;100227.97;10333156;28;20129;-72
2022/09/02 04:49:37;;;;;;;2.50;0.82;;;;;;;18.53;45.77;100236.75;10334344;28;20050;-75
2022/09/02 04:54:38;;;;;;;2.40;1.33;;;;;;;18.50;45.54;100235.22;10310609;28;20060;-75
2022/09/02 04:59:40;;;;;;;1.48;0.90;;;;;;;18.47;45.68;100229.38;10301899;28;20664;-71
2022/09/02 05:04:41;;;;;;;1.95;1.00;;;;;;;18.52;45.61;100229.66;10311040;28;20053;-74
2022/09/02 05:09:43;;;;;;;1.75;0.95;;;;;;;18.60;45.70;100226.09;10327571;28;20113;-73
2022/09/02 05:14:47;;;;;;;2.53;0.93;;;;;;;18.63;45.59;100234.69;10317800;28;20271;-73
2022/09/02 05:19:49;;;;;;;1.17;1.05;;;;;;;18.60;45.62;100234.16;10313540;28;20591;-73
2022/09/02 05:24:50;;;;;;;2.17;1.17;;;;;;;18.65;45.69;100238.03;10309276;28;20468;-77
2022/09/02 05:29:57;;;;;;;2.25;1.05;;;;;;;18.65;45.67;100234.50;10312674;28;20768;-73
2022/09/02 05:34:59;;;;;;;3.88;1.08;;;;;;;18.72;46.07;100233.63;10307700;28;20050;-74
2022/09/02 05:40:00;;;;;;;2.75;1.00;;;;;;;18.87;46.09;100240.94;10309091;28;20566;-75
2022/09/02 05:45:03;;;;;;;3.88;1.10;;;;;;;18.90;45.83;100240.63;10310732;28;20045;-71
2022/09/02 05:50:05;;;;;;;2.28;0.85;;;;;;;18.95;45.61;100238.22;10306905;28;20607;-75
2022/09/02 05:55:08;;;;;;;3.33;1.23;;;;;;;19.08;45.86;100238.47;10310245;28;20145;-71
2022/09/02 06:00:11;;;;;;;2.05;0.95;;;;;;;19.17;45.66;100236.56;10307294;28;21721;-74
2022/09/02 06:05:18;;;;;;;2.67;1.20;;;;;;;19.25;45.29;100238.34;10297456;28;20060;-74
2022/09/02 06:10:19;;;;;;;2.45;0.80;;;;;;;19.45;45.66;100232.44;10310040;28;20046;-74
2022/09/02 06:15:21;;;;;;;5.35;1.00;;;;;;;19.74;44.98;100242.47;10319126;28;20547;-76
2022/09/02 06:20:22;;;;;;;1.58;1.02;;;;;;;19.83;44.49;100229.75;10331840;28;20071;-74
2022/09/02 06:25:24;;;;;;;3.38;0.75;;;;;;;19.95;43.91;100231.81;10307419;28;20149;-73
2022/09/02 06:30:25;;;;;;;3.80;0.90;;;;;;;19.94;44.81;100234.72;10305200;28;20073;-73
2022/09/02 06:35:26;;;;;;;2.60;0.98;;;;;;;20.23;44.15;100238.44;10306063;28;20061;-77
2022/09/02 06:40:28;;;;;;;5.35;1.02;;;;;;;20.46;43.40;100244.56;10307800;28;20350;-77
2022/09/02 06:45:30;;;;;;;1.42;0.68;;;;;;;20.67;42.82;100245.66;10307662;28;20633;-74
2022/09/02 06:50:31;;;;;;;3.53;1.10;;;;;;;20.80;42.46;100243.13;10303160;28;20061;-75
2022/09/02 06:55:35;;;;;;;3.00;1.05;;;;;;;20.83;42.80;100240.03;10303236;28;20124;-73
2022/09/02 07:00:38;;;;;;;3.95;1.40;;;;;;;20.88;41.81;100239.44;10317022;28;20136;-74
2022/09/02 07:05:40;;;;;;;3.80;1.60;;;;;;;20.87;42.50;100245.06;10306733;28;20049;-74
2022/09/02 07:10:41;;;;;;;3.22;0.80;;;;;;;20.92;42.02;100231.81;10310909;28;20057;-76
2022/09/02 07:15:42;;;;;;;5.18;0.90;;;;;;;21.11;41.32;100225.75;10316344;28;20628;-74
2022/09/02 07:20:46;;;;;;;2.83;1.00;;;;;;;21.13;41.25;100237.22;10309750;28;20532;-74
2022/09/02 07:25:47;;;;;;;2.55;0.95;;;;;;;21.19;41.74;100231.03;10307208;28;20859;-77
2022/09/02 07:30:53;;;;;;;5.03;1.02;;;;;;;21.36;41.03;100226.22;10303861;28;20561;-76
2022/09/02 07:36:00;;;;;;;1.60;0.98;;;;;;;21.56;40.43;100222.00;10303501;28;20100;-74
2022/09/02 07:41:02;;;;;;;1.42;0.70;;;;;;;21.54;40.13;100223.06;10299073;28;20056;-73
2022/09/02 07:46:04;;;;;;;3.27;0.93;;;;;;;21.66;40.47;100230.63;10301020;28;20140;-77
2022/09/02 07:51:06;;;;;;;1.77;0.95;;;;;;;22.01;39.92;100222.53;10302553;28;20056;-75
2022/09/02 07:56:08;;;;;;;2.00;0.97;;;;;;;22.07;38.93;100221.75;10302746;28;20046;-72
2022/09/02 08:01:11;;;;;;;3.00;0.90;;;;;;;22.02;39.34;100225.06;10307725;28;20297;-77
2022/09/02 08:06:13;;;;;;;2.40;0.82;;;;;;;22.24;39.50;100223.06;10309588;28;20053;-77
2022/09/02 08:11:14;;;;;;;2.35;1.20;;;;;;;22.37;39.08;100210.66;10309508;28;20723;-74
2022/09/02 08:16:16;;;;;;;4.57;0.80;;;;;;;22.44;38.38;100205.25;10324513;28;20098;-74
2022/09/02 08:21:17;;;;;;;1.42;1.00;;;;;;;22.54;39.03;100201.13;10308277;28;20050;-77
2022/09/02 08:26:20;;;;;;;10.05;1.35;;;;;;;22.88;37.48;100212.03;10310134;28;20054;-74
2022/09/02 08:31:21;;;;;;;1.97;0.80;;;;;;;23.14;36.90;100216.72;10310749;28;20681;-74
2022/09/02 08:36:23;;;;;;;1.40;0.60;;;;;;;23.33;36.41;100214.22;10313167;28;20909;-76
2022/09/02 08:41:32;;;;;;;2.47;0.85;;;;;;;23.53;36.03;100204.22;10311035;28;20050;-79
2022/09/02 08:46:34;;;;;;;3.80;1.05;;;;;;;23.77;36.00;100204.59;10313010;28;20174;-77
2022/09/02 08:51:47;;;;;;;2.38;0.65;;;;;;;24.11;35.35;100200.78;10308968;28;20647;-77
2022/09/02 08:56:54;;;;;;;2.00;0.60;;;;;;;24.41;34.88;100192.09;10292624;28;20054;-75
2022/09/02 09:02:15;;;;;;;2.67;0.50;;;;;;;24.86;34.74;100202.13;10305549;28;20238;-80
2022/09/02 09:07:33;;;;;;;2.95;1.23;;;;;;;25.22;33.17;100200.63;10306470;28;20062;-78
2022/09/02 09:12:54;;;;;;;8.00;1.35;;;;;;;25.55;32.92;100194.09;10309371;28;20651;-78
2022/09/02 09:18:07;;;;;;;2.55;0.90;;;;;;;25.69;31.99;100179.28;10311348;28;20041;-77
2022/09/02 09:23:20;;;;;;;3.13;0.90;;;;;;;25.67;32.04;100178.69;10305254;28;20443;-79
2022/09/02 09:28:22;;;;;;;1.75;0.60;;;;;;;25.99;31.23;100173.13;10306689;28;20295;-75
2022/09/02 09:33:24;;;;;;;1.90;0.60;;;;;;;26.14;30.86;100169.16;10321326;28;20057;-77
2022/09/02 09:38:34;;;;;;;3.42;0.45;;;;;;;26.45;31.07;100152.63;10292555;28;20069;-74
2022/09/02 09:43:36;;;;;;;2.25;0.65;;;;;;;27.25;29.14;100149.72;10296299;28;20167;-78
2022/09/02 09:48:48;;;;;;;3.33;0.30;;;;;;;27.47;27.87;100145.41;10303510;28;20057;-75
2022/09/02 09:53:50;;;;;;;2.05;0.60;;;;;;;27.84;27.32;100139.63;10306922;28;20046;-77
2022/09/02 09:58:52;;;;;;;0.70;0.30;;;;;;;28.03;25.80;100147.75;10304027;28;20620;-77
2022/09/02 10:04:06;;;;;;;1.17;0.40;;;;;;;27.96;26.16;100136.06;10304305;28;20297;-76
2022/09/02 10:09:29;;;;;;;1.23;0.70;;;;;;;28.17;25.01;100131.88;10319921;28;20054;-76
2022/09/02 10:14:44;;;;;;;1.42;0.40;;;;;;;28.50;25.56;100131.13;10333716;28;20049;-79
2022/09/02 10:19:46;;;;;;;2.13;0.60;;;;;;;31.84;22.50;100125.25;10330779;28;20073;-77
2022/09/02 10:24:59;;;;;;;2.42;0.57;;;;;;;35.05;18.34;100125.25;10306646;28;20050;-76
2022/09/02 10:30:12;;;;;;;2.58;0.40;;;;;;;31.82;20.71;100121.94;10305665;28;20204;-76
2022/09/02 10:35:23;;;;;;;1.48;0.50;;;;;;;30.40;22.65;100115.84;10308624;28;20060;-79
2022/09/02 10:40:36;;;;;;;2.03;0.93;;;;;;;29.94;22.04;100105.19;10307419;28;20080;-76
2022/09/02 10:45:45;;;;;;;3.15;0.40;;;;;;;31.23;20.59;100103.69;10305740;28;20540;-80
2022/09/02 10:51:14;;;;;;;2.17;0.40;;;;;;;35.34;15.89;100103.16;10305050;28;20056;-78
2022/09/02 10:56:25;;;;;;;1.80;0.30;;;;;;;35.04;15.45;100101.47;10309481;28;20053;-77
2022/09/02 11:01:48;;;;;;;1.13;0.35;;;;;;;33.54;17.93;100100.66;10306814;28;20050;-79
2022/09/02 11:06:50;;;;;;;2.10;0.40;;;;;;;31.82;19.41;100088.94;10299553;28;21041;-76
2022/09/02 11:12:03;;;;;;;3.65;0.63;;;;;;;36.19;16.53;100078.56;10304636;28;20049;-78
2022/09/02 11:17:22;;;;;;;2.42;0.43;;;;;;;40.06;12.65;100080.03;10308137;28;20156;-82
2022/09/02 11:22:38;;;;;;;3.05;0.43;;;;;;;41.66;11.96;100069.03;10308211;28;20136;-76
2022/09/02 11:27:46;;;;;;;4.18;1.00;;;;;;;40.46;11.41;100040.88;10304368;28;20728;-80
2022/09/02 11:33:20;;;;;;;2.67;0.20;;;;;;;39.38;12.97;100055.25;10308517;28;20072;-79
2022/09/02 11:38:35;;;;;;;2.78;0.30;;;;;;;40.44;12.46;100051.50;10310656;28;20784;-77
2022/09/02 11:43:46;;;;;;;2.00;0.40;;;;;;;35.84;16.31;100039.19;10310781;28;20060;-80
2022/09/02 11:49:09;;;;;;;2.80;0.50;;;;;;;41.26;12.48;100042.28;10308206;28;20050;-81
2022/09/02 11:54:15;;;;;;;4.07;0.60;;;;;;;43.53;10.75;100036.63;10307434;28;20045;-78
2022/09/02 11:59:51;;;;;;;1.50;0.43;;;;;;;43.88;9.86;100027.69;10308469;28;20076;-76
2022/09/02 12:05:28;;;;;;;1.67;0.20;;;;;;;43.62;10.33;100014.09;10297692;28;20050;-76
2022/09/02 12:10:42;;;;;;;2.25;0.20;;;;;;;37.13;14.31;100013.00;10299310;28;21469;-76
2022/09/02 12:15:44;;;;;;;2.65;0.40;;;;;;;40.86;11.96;100002.69;10304184;28;20054;-76
2022/09/02 12:20:45;;;;;;;2.80;0.32;;;;;;;42.47;10.48;99999.84;10298095;28;20180;-79
2022/09/02 12:26:00;;;;;;;2.53;0.30;;;;;;;41.41;11.54;99993.44;10325177;28;20434;-81
2022/09/02 12:31:06;;;;;;;1.52;0.45;;;;;;;42.39;11.17;99997.97;10312216;28;20060;-76
2022/09/02 12:36:28;;;;;;;2.30;0.40;;;;;;;39.54;12.87;99990.78;10302988;28;20381;-79
2022/09/02 12:41:32;;;;;;;1.38;0.30;;;;;;;35.41;16.34;99981.06;10300699;28;20050;-77
2022/09/02 12:46:43;;;;;;;1.00;0.40;;;;;;;32.49;18.90;99982.53;10301671;28;20325;-76
2022/09/02 12:52:03;;;;;;;1.17;0.40;;;;;;;32.29;19.97;99974.28;10302393;28;20037;-78
2022/09/02 12:57:06;;;;;;;2.00;0.43;;;;;;;33.02;18.79;99978.63;10302208;28;20053;-79
2022/09/02 13:02:50;;;;;;;1.17;0.35;;;;;;;32.04;19.15;99965.69;10303928;28;20189;-81
2022/09/02 13:08:31;;;;;;;3.20;0.50;;;;;;;30.96;20.01;99948.78;10300399;28;20064;-76
2022/09/02 13:14:04;;;;;;;3.67;0.38;;;;;;;30.68;19.45;99953.53;10307821;28;20126;-77
2022/09/02 13:19:09;;;;;;;1.38;0.22;;;;;;;30.72;20.22;99944.81;10301227;28;20060;-74
2022/09/02 13:24:35;;;;;;;1.40;0.30;;;;;;;31.05;19.60;99942.78;10301263;28;20125;-75
2022/09/02 13:30:05;;;;;;;2.72;0.20;;;;;;;30.80;19.98;99936.03;10301864;28;20042;-80
2022/09/02 13:35:16;;;;;;;4.68;0.77;;;;;;;30.44;19.77;99924.81;10303528;28;20042;-81
2022/09/02 13:40:32;;;;;;;2.78;0.50;;;;;;;29.97;19.74;99924.41;10303478;28;20122;-78
2022/09/02 13:45:34;;;;;;;1.17;0.40;;;;;;;29.58;20.71;99915.50;10301215;28;20060;-77
2022/09/02 13:50:40;;;;;;;1.15;0.30;;;;;;;29.36;21.68;99907.31;10302081;28;20356;-77
2022/09/02 13:55:48;;;;;;;0.93;0.30;;;;;;;29.20;20.96;99909.84;10299816;28;20867;-77
2022/09/02 14:00:50;;;;;;;0.68;0.40;;;;;;;28.74;22.06;99898.28;10303005;28;20058;-77
2022/09/02 14:05:55;;;;;;;2.33;0.47;;;;;;;28.39;22.08;99872.84;10300007;28;20448;-75
2022/09/02 14:10:57;;;;;;;0.82;0.40;;;;;;;28.38;22.36;99875.81;10297832;28;20044;-76
2022/09/02 14:16:22;;;;;;;1.17;0.40;;;;;;;28.13;22.74;99868.88;10300030;28;20046;-78
2022/09/02 14:21:24;;;;;;;1.48;0.52;;;;;;;27.91;23.08;99865.19;10300912;28;20069;-80
2022/09/02 14:26:32;;;;;;;1.95;0.50;;;;;;;27.66;22.64;99850.00;10297944;28;20716;-74
2022/09/02 14:31:34;;;;;;;0.75;0.60;;;;;;;27.61;22.90;99847.16;10299138;28;20046;-75
2022/09/02 14:36:37;;;;;;;1.60;0.40;;;;;;;27.27;23.09;99860.75;10300061;28;20050;-76
2022/09/02 14:41:57;;;;;;;1.75;0.45;;;;;;;26.86;23.16;99848.97;10298775;28;20056;-77
2022/09/02 14:47:11;;;;;;;0.65;0.30;;;;;;;26.71;22.95;99842.13;10300398;28;20460;-75
2022/09/02 14:52:26;;;;;;;1.55;0.22;;;;;;;26.57;23.39;99832.50;10304085;28;20086;-75
2022/09/02 14:57:34;;;;;;;1.45;0.50;;;;;;;26.58;23.83;99834.16;10312890;28;20058;-76
2022/09/02 15:02:39;;;;;;;0.50;0.20;;;;;;;26.28;23.21;99822.31;10304751;28;20527;-77
2022/09/02 15:07:41;;;;;;;0.73;0.30;;;;;;;26.16;23.46;99816.03;10304814;28;20054;-79
2022/09/02 15:12:48;;;;;;;1.70;0.40;;;;;;;25.95;23.61;99814.69;10318755;28;20185;-76
2022/09/02 15:17:50;;;;;;;2.63;0.93;;;;;;;25.80;23.85;99808.88;10306168;28;20066;-74
2022/09/02 15:22:52;;;;;;;1.20;0.55;;;;;;;25.77;23.95;99802.81;10314769;28;20553;-76
2022/09/02 15:27:53;;;;;;;2.08;0.38;;;;;;;25.74;23.88;99800.56;10302897;28;20060;-76
2022/09/02 15:32:55;;;;;;;2.67;0.40;;;;;;;25.68;24.41;99789.78;10305407;28;20050;-78
2022/09/02 15:37:56;;;;;;;3.50;0.90;;;;;;;25.60;24.31;99788.22;10308031;28;20137;-79
2022/09/02 15:42:58;;;;;;;1.70;0.82;;;;;;;25.53;24.62;99798.38;10302995;28;20058;-76
2022/09/02 15:48:00;;;;;;;0.60;0.30;;;;;;;25.58;24.95;99806.69;10302384;28;20056;-75
2022/09/02 15:53:01;;;;;;;1.55;0.40;;;;;;;25.48;24.62;99790.09;10290142;28;20145;-78
2022/09/02 15:58:02;;;;;;;1.73;0.70;;;;;;;25.48;24.93;99795.53;10271030;28;20465;-73
2022/09/02 16:03:04;;;;;;;2.15;0.57;;;;;;;25.38;24.82;99788.75;10267222;28;20065;-77
2022/09/02 16:08:05;;;;;;;1.30;0.50;;;;;;;25.23;24.99;99794.59;10312304;28;20208;-75
2022/09/02 16:13:09;;;;;;;1.50;0.25;;;;;;;25.17;25.32;99792.78;10308297;28;20057;-76
2022/09/02 16:18:16;;;;;;;1.08;0.50;;;;;;;25.16;25.47;99790.28;10248990;28;20979;-75
2022/09/02 16:23:17;;;;;;;3.58;0.55;;;;;;;25.16;25.48;99782.13;10261045;28;20054;-76
2022/09/02 16:28:19;;;;;;;0.98;0.40;;;;;;;25.05;25.33;99783.75;10293706;28;20045;-76
2022/09/02 16:33:20;;;;;;;1.75;0.38;;;;;;;24.90;25.35;99778.72;10297388;28;20057;-74
2022/09/02 16:38:22;;;;;;;0.77;0.30;;;;;;;24.88;25.63;99786.28;10306447;28;20054;-73
2022/09/02 16:43:23;;;;;;;3.03;0.50;;;;;;;24.83;25.73;99767.91;10328491;28;20578;-75
2022/09/02 16:48:26;;;;;;;0.60;0.40;;;;;;;24.75;25.67;99781.00;10308137;28;20818;-77
2022/09/02 16:53:32;;;;;;;3.90;0.50;;;;;;;24.67;25.31;99771.28;10302652;28;20246;-79
2022/09/02 16:58:33;;;;;;;0.60;0.30;;;;;;;24.63;25.66;99773.59;10292930;28;20592;-80
2022/09/02 17:03:38;;;;;;;3.17;0.88;;;;;;;24.55;25.88;99765.72;10306337;28;20088;-74
2022/09/02 17:08:43;;;;;;;2.08;0.60;;;;;;;24.51;25.90;99775.38;10280161;28;20050;-77
2022/09/02 17:13:52;;;;;;;3.28;0.50;;;;;;;24.41;26.03;99775.06;10318563;28;20050;-81
2022/09/02 17:19:01;;;;;;;0.82;0.47;;;;;;;24.27;26.08;99768.97;10270006;28;20065;-77
2022/09/02 17:24:08;;;;;;;2.10;0.90;;;;;;;24.24;26.31;99777.56;10303606;28;20053;-77
2022/09/02 17:29:12;;;;;;;2.50;0.95;;;;;;;24.12;26.00;99789.16;10306457;28;20076;-78
2022/09/02 17:34:36;;;;;;;0.55;0.40;;;;;;;24.02;26.33;99785.31;10298984;28;20559;-78
2022/09/02 17:39:37;;;;;;;1.20;0.50;;;;;;;23.95;26.54;99791.63;10317002;28;20410;-75
2022/09/02 17:44:39;;;;;;;2.72;0.40;;;;;;;23.90;26.87;99791.50;10280551;28;20050;-73
2022/09/02 17:49:43;;;;;;;2.40;0.80;;;;;;;23.82;26.83;99784.41;10310698;28;20053;-79
2022/09/02 17:54:47;;;;;;;2.40;0.52;;;;;;;23.71;26.94;99792.44;10312539;28;20082;-76
2022/09/02 18:00:08;;;;;;;3.25;0.80;;;;;;;23.63;27.00;99790.84;10309041;28;20693;-75
2022/09/02 18:05:48;;;;;;;3.65;0.60;;;;;;;23.52;27.40;99778.78;10329982;28;20049;-80
2022/09/02 18:10:57;;;;;;;2.05;0.60;;;;;;;23.43;28.15;99788.25;10318546;28;20119;-76
2022/09/02 18:16:27;;;;;;;2.55;0.88;;;;;;;23.33;28.02;99790.63;10313499;28;20347;-75
2022/09/02 18:21:46;;;;;;;2.60;0.82;;;;;;;23.27;28.11;99793.16;10317402;28;20100;-78
2022/09/02 18:27:01;;;;;;;1.50;0.70;;;;;;;23.16;28.72;99795.75;10314358;28;20146;-76
2022/09/02 18:32:30;;;;;;;1.63;0.60;;;;;;;23.12;28.63;99800.78;10316460;28;20041;-73
2022/09/02 18:38:05;;;;;;;2.10;0.50;;;;;;;23.01;28.95;99804.13;10311984;28;20544;-75
2022/09/02 18:43:22;;;;;;;1.02;0.63;;;;;;;22.92;29.78;99806.25;10306265;28;20095;-78
2022/09/02 18:48:30;;;;;;;3.80;0.80;;;;;;;22.91;29.46;99810.03;10303296;28;20041;-72
2022/09/02 18:53:38;;;;;;;1.33;0.70;;;;;;;22.81;29.39;99810.47;10311589;28;20314;-73
2022/09/02 18:58:49;;;;;;;1.77;1.10;;;;;;;22.77;30.19;99820.09;10310295;28;20050;-74
2022/09/02 19:03:51;;;;;;;2.70;0.95;;;;;;;22.70;30.08;99813.84;10308353;28;20567;-76
2022/09/02 19:08:59;;;;;;;3.58;1.10;;;;;;;22.64;30.59;99820.13;10304012;28;20125;-74
2022/09/02 19:14:08;;;;;;;2.35;0.73;;;;;;;22.57;30.33;99826.41;10306201;28;20046;-75
2022/09/02 19:19:09;;;;;;;3.38;0.80;;;;;;;22.52;31.06;99823.50;10312007;28;20507;-74
2022/09/02 19:24:13;;;;;;;6.03;1.10;;;;;;;22.50;31.57;99825.59;10309213;28;20599;-74
2022/09/02 19:29:16;;;;;;;3.47;0.85;;;;;;;22.45;31.17;99822.69;10310281;28;20057;-73
2022/09/02 19:34:18;;;;;;;2.88;0.90;;;;;;;22.41;31.77;99816.88;10307473;28;20061;-74
2022/09/02 19:39:20;;;;;;;3.13;0.82;;;;;;;22.30;31.87;99813.94;10314468;28;20049;-74
2022/09/02 19:44:21;;;;;;;2.33;0.88;;;;;;;22.22;31.90;99818.53;10325618;28;20049;-75
2022/09/02 19:49:23;;;;;;;2.17;0.75;;;;;;;22.18;31.72;99817.28;10325328;28;20649;-77
2022/09/02 19:54:25;;;;;;;3.05;0.90;;;;;;;22.11;32.40;99821.03;10365100;28;20045;-77
2022/09/02 19:59:26;;;;;;;3.25;1.10;;;;;;;22.00;32.93;99814.38;10370048;28;20084;-70
2022/09/02 20:04:28;;;;;;;1.25;0.98;;;;;;;22.02;32.77;99820.41;10327217;28;20064;-73
2022/09/02 20:09:30;;;;;;;2.25;1.02;;;;;;;21.94;33.07;99816.03;10312942;28;20182;-74
2022/09/02 20:14:35;;;;;;;1.80;1.02;;;;;;;21.85;33.37;99823.53;10340530;28;20049;-75
2022/09/02 20:19:36;;;;;;;2.05;1.55;;;;;;;21.75;32.86;99823.09;10338755;28;20038;-73
2022/09/02 20:24:43;;;;;;;1.90;0.85;;;;;;;21.67;33.53;99818.72;10338561;28;20057;-71
2022/09/02 20:30:03;;;;;;;1.80;0.60;;;;;;;21.63;33.22;99830.19;10335559;28;20128;-75
2022/09/02 20:35:23;;;;;;;2.60;0.63;;;;;;;21.47;33.30;99828.69;10344281;28;20087;-75
2022/09/02 20:40:57;;;;;;;1.75;0.90;;;;;;;21.36;33.81;99830.09;10331475;28;20124;-73
2022/09/02 20:46:05;;;;;;;2.30;0.70;;;;;;;21.37;34.38;99831.78;10316807;28;20136;-76
2022/09/02 20:51:11;;;;;;;3.67;1.05;;;;;;;21.39;33.91;99829.69;10335649;28;20197;-70
2022/09/02 20:56:27;;;;;;;2.17;0.93;;;;;;;21.24;34.39;99823.63;10333285;28;20033;-73
2022/09/02 21:01:33;;;;;;;3.22;1.17;;;;;;;21.22;34.22;99833.81;10347552;28;20137;-76
2022/09/02 21:06:40;;;;;;;3.08;2.10;;;;;;;21.19;34.71;99833.19;10333338;28;20136;-71
2022/09/02 21:11:50;;;;;;;3.13;1.75;;;;;;;21.18;34.65;99834.22;10334172;28;20079;-75
2022/09/02 21:17:04;;;;;;;3.08;1.90;;;;;;;21.17;34.92;99821.72;10331382;28;20074;-74
2022/09/02 21:22:18;;;;;;;4.93;2.60;;;;;;;21.19;35.38;99822.34;10336352;28;20133;-72
2022/09/02 21:27:24;;;;;;;2.88;2.13;;;;;;;21.17;35.57;99816.31;10334988;28;20135;-74
2022/09/02 21:32:50;;;;;;;4.25;2.30;;;;;;;21.08;34.96;99817.53;10348968;28;20045;-76
2022/09/02 21:38:05;;;;;;;2.85;2.05;;;;;;;21.04;35.68;99815.44;10333023;28;20619;-77
2022/09/02 21:43:16;;;;;;;3.83;1.83;;;;;;;21.06;36.49;99818.78;10333205;28;20052;-74
2022/09/02 21:48:23;;;;;;;2.25;1.17;;;;;;;21.03;35.69;99820.00;10334047;28;20042;-77
2022/09/02 21:54:03;;;;;;;4.30;0.95;;;;;;;20.96;36.16;99821.88;10333747;28;20096;-73
2022/09/02 21:59:25;;;;;;;3.08;1.25;;;;;;;20.89;35.92;99823.72;10331350;28;20049;-74
2022/09/02 22:04:30;;;;;;;2.42;0.82;;;;;;;20.77;36.43;99832.38;10332642;28;20053;-73
2022/09/02 22:09:32;;;;;;;3.47;1.00;;;;;;;20.70;36.38;99826.09;10331932;28;20137;-75
2022/09/02 22:15:10;;;;;;;1.17;0.98;;;;;;;20.68;36.83;99828.19;10333902;28;20823;-74
2022/09/02 22:20:17;;;;;;;3.38;0.55;;;;;;;20.64;36.84;99824.16;10332175;28;20059;-71
2022/09/02 22:25:20;;;;;;;1.98;0.77;;;;;;;20.60;36.57;99817.50;10336963;28;20053;-74
2022/09/02 22:30:22;;;;;;;1.02;0.50;;;;;;;20.45;36.43;99801.41;10337884;28;20472;-74
2022/09/02 22:35:40;;;;;;;1.67;0.80;;;;;;;20.36;36.89;99808.84;10336466;28;20611;-75
2022/09/02 22:40:49;;;;;;;1.45;0.60;;;;;;;20.37;37.22;99815.06;10346405;28;20045;-74
2022/09/02 22:56:57;;;;;;;1.85;0.40;;;;;;;20.33;37.54;99814.66;10331502;28;20162;-75
2022/09/02 23:02:12;;;;;;;3.15;0.60;;;;;;;20.34;37.27;99805.50;10333914;28;20052;-74
2022/09/02 23:07:14;;;;;;;1.88;0.57;;;;;;;20.28;37.70;99811.69;10330702;28;20049;-73
2022/09/02 23:12:27;;;;;;;0.95;0.30;;;;;;;20.24;37.40;99810.44;10331460;28;20274;-73
2022/09/02 23:17:37;;;;;;;1.10;0.35;;;;;;;20.14;37.80;99817.00;10331671;28;20048;-77
2022/09/02 23:23:04;;;;;;;2.47;0.57;;;;;;;20.07;38.06;99829.66;10335038;28;20719;-73
2022/09/02 23:28:15;;;;;;;5.40;1.23;;;;;;;20.04;37.82;99810.28;10337005;28;20627;-74
2022/09/02 23:33:59;;;;;;;0.90;0.47;;;;;;;19.96;38.07;99803.97;10342305;28;20141;-77
2022/09/02 23:39:16;;;;;;;0.80;0.57;;;;;;;19.90;37.75;99809.34;10341223;28;20060;-77
2022/09/02 23:44:19;;;;;;;0.95;0.40;;;;;;;19.86;38.45;99802.66;10339260;28;20152;-73
2022/09/02 23:49:37;;;;;;;4.03;0.68;;;;;;;19.90;38.30;99801.25;10338068;28;20049;-75
2022/09/02 23:55:09;;;;;;;2.78;0.60;;;;;;;19.87;38.52;99804.34;10335005;28;20060;-72
